• Join FlightAware (Why Join?)
  • Login
  • US Flag 
08:38PM EDT


 

Airport Tracker/Info


-or-


 

Live Flight TrackerFlight Track Log ✈ TAM3221 ✈ 05-Jul-2013 ✈ SBCF / CNF - SBSP / CGH

Flight Track Log - Related Links

Times and Time Zones

All times are in EDT time to prevent confusion due to time zone crossing. See the TAM3221 flight status page for this flight to view local times or setup timezone preferences in your user account.

Time Position Orientation Groundspeed Altitude Reporting Facility
EDT Latitude Longitude Course Direction KTS MPH feet Rate Location/Type
08:41PM -22.3662 -45.7878 212° Southwest  Level Estimated
08:42PM -22.4295 -45.8309 212° Southwest  Level Estimated
08:43PM -22.4928 -45.8740 212° Southwest  Level Estimated
08:44PM -22.5560 -45.9172 212° Southwest  Level Estimated
08:45PM -22.6193 -45.9605 212° Southwest  Level Estimated
08:46PM -22.6826 -46.0037 212° Southwest  Level Estimated
08:47PM -22.7458 -46.0470 212° Southwest  Level Estimated
08:48PM -22.8091 -46.0904 212° Southwest  Level Estimated
08:49PM -22.8723 -46.1338 212° Southwest  Level Estimated
08:50PM -22.9355 -46.1772 212° Southwest  Level Estimated
08:51PM -22.9987 -46.2207 212° Southwest  Level Estimated
08:52PM -23.0619 -46.2642 212° Southwest  Level Estimated
08:53PM -23.1251 -46.3078 212° Southwest  Level Estimated
08:54PM -23.1882 -46.3514 212° Southwest  Level Estimated
08:55PM -23.2514 -46.3950 212° Southwest  Level Estimated
08:56PM -23.3146 -46.4387 212° Southwest  Level Estimated
08:57PM -23.3777 -46.4824 212° Southwest  Level Estimated
08:58PM -23.4408 -46.5262 212° Southwest  Level Estimated
08:59PM -23.5039 -46.5700 212° Southwest  Level Estimated
09:00PM -23.5670 -46.6138 212° Southwest  Level Estimated
09:01PM -23.6267 -46.6554 213° Southwest  Level Estimated
09:02PM -23.6267 -46.6554 114° Southeast  Level Estimated
09:03PM -23.6267 -46.6554 114° Southeast  Level Estimated
09:04PM -23.6267 -46.6554 114° Southeast  Level Estimated
09:05PM -23.6267 -46.6554 114° Southeast  Level Estimated
09:06PM -23.6267 -46.6554 114° Southeast  Level Estimated
09:07PM -23.6267 -46.6554 114° Southeast  Level Estimated
09:08PM -23.6267 -46.6554 114° Southeast  Level Estimated
09:09PM -23.6267 -46.6554 114° Southeast  Level Estimated
09:10PM -23.6267 -46.6554 114° Southeast  Level Estimated
09:11PM -23.6267 -46.6554 114° Southeast  Level Estimated
09:12PM -23.6267 -46.6554 114° Southeast  Level Estimated
09:13PM -23.6267 -46.6554 114° Southeast  Level Estimated